Terminal Aerodrome Forecast
Issued by NWS Sioux Falls, SD

Home | Current Version | Previous Version | Text Only | Print | Product List | Glossary On
Versions: 1 2 3 4 5 6 7 8 9 10 11 12 13 14
000
FTUS43 KFSD 171900 AAA
TAFHON
TAF AMD
KHON 171956Z 1720/1818 VRB04KT P6SM SCT025 SCT120
      TEMPO 1720/1722 -TSRA BKN025CB
     FM180400 27006KT 6SM -TSRA BKN050CB
     FM180600 27005KT P6SM SCT100
     FM181500 28009KT P6SM SCT050=

USA.gov is the U.S. government's official web portal to all federal, state and local government web resources and services.